Flight Track Log - Related Links

Times and Time Zones

All times are in EDT time to prevent confusion due to time zone crossing. See the SKW4664 flight status page for this flight to view local times or setup timezone preferences in your user account.


Time Position Orientation Groundspeed Altitude Reporting Facility
EDT Latitude Longitude Course Direction KTS MPH feet Rate Location/Type
Fri 12:17:45 PM 43.6086 -96.7528 52° Northeast 156 180 23,000  Level Minneapolis Center
Fri 12:18:46 PM 43.6519 -96.7100 36° Northeast 214 246 23,000  Level Minneapolis Center
Fri 12:19:48 PM 43.6969 -96.6269 53° Northeast 263 303 23,000  Level Minneapolis Center
Fri 12:20:00 PM 43.8224 -96.2896 53° Northeast  Level FlightAware Approximate
Fri 12:20:50 PM 43.7397 -96.5467 54° Northeast 280 322 23,000  Level Minneapolis Center
Fri 12:21:00 PM 43.8847 -96.1754 53° Northeast  Level FlightAware Approximate
Fri 12:21:51 PM 43.7919 -96.4475 54° Northeast 305 351 23,000  Level Minneapolis Center
Fri 12:22:00 PM 43.9474 -96.0615 52° Northeast  Level FlightAware Approximate
Fri 12:22:53 PM 43.8433 -96.3561 52° Northeast 305 351 15,100  Level Minneapolis Center
Fri 12:23:55 PM 43.8939 -96.2539 56° Northeast 323 372 16,800 1,707 Climbing Minneapolis Center
Fri 12:24:56 PM 43.9500 -96.1497 53° Northeast 333 383 18,600 1,659 Climbing Minneapolis Center
Fri 12:25:58 PM 44.0058 -96.0372 55° Northeast 348 400 20,200 1,161 Climbing Minneapolis Center
Fri 12:27:00 PM 44.0767 -95.9003 54° Northeast 362 417 21,000 390 Climbing Minneapolis Center
Fri 12:28:01 PM 44.1353 -95.7847 55° Northeast 366 421 21,000  Level Minneapolis Center
Fri 12:29:03 PM 44.2214 -95.7269 26° Northeast 353 406 21,000  Level Minneapolis Center
Fri 12:30:04 PM 44.3086 -95.6911 16° North 338 389 21,000  Level Minneapolis Center
Fri 12:31:06 PM 44.3933 -95.6569 16° North 329 379 21,000  Level Minneapolis Center
Fri 12:32:08 PM 44.4772 -95.6247 15° North 321 369 21,000  Level Minneapolis Center
Fri 12:33:09 PM 44.5350 -95.5414 46° Northeast 328 377 21,000  Level Minneapolis Center
Fri 12:34:11 PM 44.5250 -95.3803 95° East 342 394 21,000  Level Minneapolis Center
Fri 12:35:13 PM 44.5442 -95.2381 79° East 359 413 21,000  Level Minneapolis Center
Fri 12:36:14 PM 44.5633 -95.0864 80° East 380 437 21,000  Level Minneapolis Center
Fri 12:37:16 PM 44.5819 -94.9317 80° East 398 458 21,000 -823 Level Minneapolis Center
Fri 12:38:18 PM 44.5981 -94.7808 81° East 395 455 19,300 -1,887 Descending Minneapolis Center
Fri 12:39:20 PM 44.6150 -94.6383 80° East 379 436 17,100 -2,278 Descending Minneapolis Center
Fri 12:40:06 PM 44.6331 -94.5211 78° East 351 404 15,200 -2,364 Descending FAA TRACON SMA TRACON (SMA)
Fri 12:40:26 PM 44.6367 -94.4800 83° East 346 398 14,500 -2,049 Descending FAA TRACON SMA TRACON (SMA)
Fri 12:40:47 PM 44.6428 -94.4292 80° East 342 394 13,800 -1,950 Descending FAA TRACON SMA TRACON (SMA)
Fri 12:41:06 PM 44.6472 -94.3892 81° East 338 389 13,200 -2,100 Descending FAA TRACON SMA TRACON (SMA)
Fri 12:41:27 PM 44.6572 -94.3417 73° East 329 379 12,400 -2,049 Descending FAA TRACON SMA TRACON (SMA)
Fri 12:41:47 PM 44.6636 -94.3044 76° East 322 371 11,800 -1,846 Descending FAA TRACON SMA TRACON (SMA)
Fri 12:42:06 PM 44.6714 -94.2681 73° East 317 365 11,200 -1,200 Descending FAA TRACON SMA TRACON (SMA)
Fri 12:42:27 PM 44.6819 -94.2242 71° East 310 357 11,000 -293 Descending FAA TRACON SMA TRACON (SMA)
Fri 12:42:47 PM 44.6892 -94.1892 74° East 305 351 11,000  Level FAA TRACON SMA TRACON (SMA)
Fri 12:43:06 PM 44.6967 -94.1533 74° East 307 353 11,000  Level FAA TRACON SMA TRACON (SMA)
Fri 12:43:27 PM 44.7072 -94.1092 71° East 311 358 11,000  Level FAA TRACON SMA TRACON (SMA)
Fri 12:43:46 PM 44.7144 -94.0728 74° East 313 360 11,000  Level FAA TRACON SMA TRACON (SMA)
Fri 12:44:06 PM 44.7222 -94.0364 73° East 315 362 11,000  Level FAA TRACON SMA TRACON (SMA)
Fri 12:44:27 PM 44.7308 -94.0000 72° East 316 364 11,000  Level FAA TRACON SMA TRACON (SMA)
Fri 12:44:47 PM 44.7403 -93.9547 74° East 316 364 11,000  Level FAA TRACON SMA TRACON (SMA)
Fri 12:45:07 PM 44.7486 -93.9181 72° East 318 366 11,000  Level FAA TRACON SMA TRACON (SMA)
Fri 12:45:27 PM 44.7586 -93.8728 73° East 317 365 11,000  Level FAA TRACON SMA TRACON (SMA)
Fri 12:45:47 PM 44.7669 -93.8364 72° East 316 364 11,000  Level FAA TRACON SMA TRACON (SMA)
Fri 12:46:06 PM 44.7742 -93.8003 74° East 314 361 11,000  Level FAA TRACON SMA TRACON (SMA)
Fri 12:46:27 PM 44.7825 -93.7642 72° East 313 360 11,000  Level FAA TRACON SMA TRACON (SMA)
Fri 12:46:47 PM 44.7914 -93.7189 75° East 314 361 11,000  Level FAA TRACON SMA TRACON (SMA)
Fri 12:47:08 PM 44.8000 -93.6822 72° East 317 365 11,000  Level FAA TRACON SMA TRACON (SMA)
Fri 12:47:26 PM 44.8083 -93.6456 72° East 320 368 11,000  Level FAA TRACON SMA TRACON (SMA)
Fri 12:47:47 PM 44.8181 -93.5994 73° East 321 369 11,000  Level FAA TRACON SMA TRACON (SMA)
Fri 12:48:07 PM 44.8258 -93.5628 73° East 319 367 11,000 -585 Level FAA TRACON SMA TRACON (SMA)
Fri 12:48:28 PM 44.8353 -93.5197 73° East 303 349 10,600 -1,024 Descending FAA TRACON SMA TRACON (SMA)
Fri 12:48:48 PM 44.8428 -93.4869 72° East 289 333 10,300 -1,500 Descending FAA TRACON SMA TRACON (SMA)
Fri 12:49:08 PM 44.8494 -93.4547 74° East 280 322 9,600 -1,950 Descending FAA TRACON SMA TRACON (SMA)
Fri 12:49:28 PM 44.8581 -93.4150 73° East 276 318 9,000 -900 Descending FAA TRACON SMA TRACON (SMA)
Fri 12:49:48 PM 44.8647 -93.3836 73° East 271 312 9,000  Level FAA TRACON SMA TRACON (SMA)
Fri 12:50:07 PM 44.8600 -93.3508 101° East 284 327 9,000  Level FAA TRACON SMA TRACON (SMA)
Fri 12:50:27 PM 44.8422 -93.3244 134° Southeast 307 353 9,000 -600 Level FAA TRACON SMA TRACON (SMA)
Fri 12:50:47 PM 44.8108 -93.3117 164° South 316 364 8,600 -1,200 Descending FAA TRACON SMA TRACON (SMA)
Fri 12:51:07 PM 44.7853 -93.3108 179° South 302 348 8,200 -1,463 Descending FAA TRACON SMA TRACON (SMA)
Fri 12:51:28 PM 44.7533 -93.3100 179° South 296 341 7,600 -1,610 Descending FAA TRACON SMA TRACON (SMA)
Fri 12:51:48 PM 44.7281 -93.3094 179° South 294 338 7,100 -1,650 Descending FAA TRACON SMA TRACON (SMA)
Fri 12:52:08 PM 44.7028 -93.3094 180° South 294 338 6,500 -1,017 Descending FAA TRACON SMA TRACON (SMA)
Fri 12:52:47 PM 44.6533 -93.2969 170° South 264 304 6,100 -712 Descending FAA TRACON SMA TRACON (SMA)
Fri 12:53:07 PM 44.6442 -93.2722 118° Southeast 256 295 5,800 -900 Descending FAA TRACON SMA TRACON (SMA)
Fri 12:53:27 PM 44.6442 -93.2458 90° East 234 269 5,500 -1,200 Descending FAA TRACON SMA TRACON (SMA)
Fri 12:53:47 PM 44.6517 -93.2178 69° East 217 250 5,000 -1,500 Descending FAA TRACON SMA TRACON (SMA)
Fri 12:54:07 PM 44.6664 -93.2056 31° Northeast 203 234 4,500 -1,350 Descending FAA TRACON SMA TRACON (SMA)
Fri 12:54:27 PM 44.6847 -93.1933 25° Northeast 189 217 4,100 -732 Descending FAA TRACON SMA TRACON (SMA)
Fri 12:54:48 PM 44.6992 -93.1914 North 178 205 4,000 -146 Descending FAA TRACON SMA TRACON (SMA)
Fri 12:55:08 PM 44.7122 -93.1947 350° North 160 184 4,000 -450 Level FAA TRACON SMA TRACON (SMA)
Fri 12:55:28 PM 44.7281 -93.2003 346° North 151 174 3,700 -750 Descending FAA TRACON SMA TRACON (SMA)
Fri 12:55:48 PM 44.7400 -93.2039 348° North 147 169 3,500 -750 Descending FAA TRACON SMA TRACON (SMA)
Fri 12:56:08 PM 44.7525 -93.2078 348° North 146 168 3,200 -900 Descending FAA TRACON SMA TRACON (SMA)
Fri 12:56:28 PM 44.7667 -93.2108 351° North 136 157 2,900 -750 Descending FAA TRACON SMA TRACON (SMA)
Fri 12:56:48 PM 44.7778 -93.2131 352° North 131 151 2,700 -600 Descending FAA TRACON SMA TRACON (SMA)
Fri 12:57:08 PM 44.7889 -93.2158 350° North 130 150 2,500 -600 Descending FAA TRACON SMA TRACON (SMA)

Login

Don't have an account? Register now (free) for customized features, flight alerts, and more!